createdAt,value
2022-09-10T04:17:34.747Z,0.85
2022-09-10T04:20:01.534Z,1.10
2022-09-10T04:22:28.123Z,1.10
2022-09-10T04:24:55.870Z,0.98
2022-09-10T04:27:22.340Z,1.30
2022-09-10T04:29:48.819Z,1.88
2022-09-10T04:32:16.651Z,1.73
2022-09-10T04:34:44.427Z,1.20
2022-09-10T04:37:12.710Z,1.17
2022-09-10T04:39:43.452Z,1.55
2022-09-10T04:42:09.917Z,1.38
2022-09-10T04:44:36.713Z,1.45
2022-09-10T04:47:03.154Z,1.50
2022-09-10T04:49:29.593Z,1.25
2022-09-10T04:51:56.242Z,1.10
2022-09-10T04:54:24.005Z,2.05
2022-09-10T04:56:52.167Z,1.50
2022-09-10T04:59:18.683Z,1.83
2022-09-10T05:01:47.582Z,1.90
2022-09-10T05:04:14.225Z,1.60
2022-09-10T05:06:42.111Z,1.35
2022-09-10T05:09:09.706Z,1.52
2022-09-10T05:11:37.249Z,1.85
2022-09-10T05:14:04.141Z,1.60
2022-09-10T05:16:31.886Z,1.30
2022-09-10T05:18:59.076Z,1.58
2022-09-10T05:21:27.022Z,1.73
2022-09-10T05:23:56.006Z,1.70
2022-09-10T05:26:27.788Z,2.08
2022-09-10T05:28:55.708Z,1.80
2022-09-10T05:31:22.561Z,2.00
2022-09-10T05:33:49.131Z,2.30
2022-09-10T05:36:15.574Z,2.65
2022-09-10T05:38:43.384Z,2.40
2022-09-10T05:41:10.780Z,2.55
2022-09-10T05:43:41.878Z,2.05
2022-09-10T05:46:10.364Z,2.22
2022-09-10T05:48:40.985Z,2.15
2022-09-10T05:51:09.946Z,2.08
2022-09-10T05:53:38.188Z,2.80
2022-09-10T05:56:07.456Z,2.80
2022-09-10T05:58:35.797Z,2.90
2022-09-10T06:01:02.619Z,2.30
2022-09-10T06:03:30.894Z,3.10
2022-09-10T06:06:00.860Z,2.25
2022-09-10T06:08:32.161Z,2.92
2022-09-10T06:11:05.759Z,2.95
2022-09-10T06:13:46.027Z,2.97
2022-09-10T06:16:12.833Z,3.30
2022-09-10T06:18:41.226Z,3.45
2022-09-10T06:21:18.685Z,3.17
2022-09-10T06:23:53.562Z,2.80
2022-09-10T06:26:20.740Z,3.22
2022-09-10T06:28:49.819Z,3.72
2022-09-10T06:31:18.053Z,3.05
2022-09-10T06:33:46.827Z,3.58
2022-09-10T06:36:16.511Z,3.63
2022-09-10T06:38:44.921Z,3.28
2022-09-10T06:41:14.179Z,3.67
2022-09-10T06:43:47.718Z,3.55
2022-09-10T06:47:45.974Z,3.58
2022-09-10T06:49:49.374Z,3.50
2022-09-10T06:52:19.566Z,3.22
2022-09-10T06:54:48.130Z,3.33
2022-09-10T06:57:32.011Z,2.67
2022-09-10T07:00:00.988Z,3.17
2022-09-10T07:02:27.554Z,2.38
2022-09-10T07:04:54.057Z,3.13
2022-09-10T07:07:21.071Z,3.22
2022-09-10T07:09:48.990Z,3.15
2022-09-10T07:12:17.224Z,3.13
2022-09-10T07:14:44.589Z,2.30
2022-09-10T07:17:11.835Z,2.70
2022-09-10T07:20:08.519Z,2.30
2022-09-10T07:22:43.769Z,2.13
2022-09-10T07:25:12.708Z,2.88
2022-09-10T07:27:58.042Z,2.35
2022-09-10T07:30:25.580Z,2.58
2022-09-10T07:32:52.301Z,2.95
2022-09-10T07:35:23.206Z,2.28
2022-09-10T07:37:50.556Z,2.70
2022-09-10T07:40:18.807Z,2.90
2022-09-10T07:42:45.725Z,3.13
2022-09-10T07:45:16.062Z,2.85
2022-09-10T07:47:44.575Z,3.10
2022-09-10T07:50:40.567Z,2.90
2022-09-10T07:53:22.801Z,2.38
2022-09-10T07:56:06.342Z,2.88
2022-09-10T07:58:38.199Z,2.88
2022-09-10T08:01:09.294Z,3.15
2022-09-10T08:03:35.939Z,2.00
2022-09-10T08:06:53.383Z,2.15
2022-09-10T08:09:20.345Z,1.83
2022-09-10T08:11:51.918Z,1.67
2022-09-10T08:14:20.874Z,2.10
2022-09-10T08:16:51.118Z,2.13
2022-09-10T08:19:18.049Z,2.78
2022-09-10T08:21:45.550Z,2.05
2022-09-10T08:24:14.517Z,2.30
2022-09-10T08:26:43.759Z,2.42
2022-09-10T08:29:10.334Z,2.42
2022-09-10T08:31:36.947Z,2.35
2022-09-10T08:34:14.418Z,2.20
2022-09-10T08:36:45.242Z,2.05
2022-09-10T08:39:14.074Z,1.90
2022-09-10T09:11:29.235Z,1.75
2022-09-10T09:13:58.841Z,1.40
2022-09-10T09:16:56.378Z,1.45
2022-09-10T09:19:35.019Z,2.03
2022-09-10T09:22:11.730Z,1.50
2022-09-10T09:25:00.666Z,1.45
2022-09-10T09:30:50.563Z,1.67
2022-09-10T09:33:23.158Z,1.80
2022-09-10T09:40:47.098Z,1.50
2022-09-10T09:43:31.325Z,2.00
2022-09-10T09:46:01.109Z,1.50
2022-09-10T09:48:38.793Z,1.17
2022-09-10T09:51:11.650Z,1.00
2022-09-10T09:53:39.531Z,1.00
2022-09-10T09:56:32.863Z,1.15
2022-09-10T09:59:11.905Z,1.20
2022-09-10T10:01:43.354Z,1.02
2022-09-10T10:04:23.990Z,1.40
2022-09-10T10:07:00.030Z,0.52
2022-09-10T10:09:34.471Z,1.70
2022-09-10T10:12:15.120Z,1.30
2022-09-10T10:14:43.523Z,1.30
2022-09-10T10:17:33.717Z,1.42
2022-09-10T10:20:11.124Z,1.48
2022-09-10T10:22:40.034Z,0.98
2022-09-10T10:25:34.045Z,1.20
2022-09-10T10:28:00.864Z,1.40
2022-09-10T10:33:24.174Z,1.13
2022-09-10T10:36:13.594Z,0.70
2022-09-10T10:38:47.439Z,1.58
2022-09-10T10:44:19.255Z,1.05
2022-09-10T10:47:21.293Z,0.77
2022-09-10T10:50:18.303Z,0.93
2022-09-10T10:53:25.493Z,1.38
2022-09-10T10:56:21.779Z,0.70
2022-09-10T10:58:56.837Z,1.05
2022-09-10T11:01:25.849Z,0.93
2022-09-10T11:04:00.564Z,0.98
2022-09-10T11:06:38.842Z,0.90
2022-09-10T11:09:16.359Z,0.57
2022-09-10T11:11:55.184Z,0.95
2022-09-10T11:14:56.055Z,0.47
2022-09-10T11:17:39.528Z,0.50
2022-09-10T11:20:29.942Z,0.40
2022-09-10T11:23:03.593Z,0.50
2022-09-10T11:25:44.791Z,0.45
2022-09-10T11:28:19.550Z,0.43
2022-09-10T11:30:53.513Z,0.40
2022-09-10T11:33:23.313Z,0.60
2022-09-10T11:36:17.259Z,0.38
2022-09-10T11:41:22.271Z,0.50
2022-09-10T11:44:26.532Z,0.77
2022-09-10T11:47:04.516Z,0.50
2022-09-10T11:49:47.701Z,0.40
2022-09-10T11:52:16.583Z,0.20
2022-09-10T11:54:46.764Z,0.30
2022-09-10T11:57:18.575Z,0.20
2022-09-10T12:00:09.540Z,0.35
2022-09-10T12:02:38.982Z,0.40
2022-09-10T12:05:18.274Z,0.30
2022-09-10T12:08:14.746Z,0.40
2022-09-10T12:11:04.702Z,0.40
2022-09-10T12:13:33.407Z,0.30
2022-09-10T12:16:09.642Z,0.20
2022-09-10T12:18:43.091Z,0.40
2022-09-10T12:21:23.288Z,0.30
2022-09-10T12:23:50.022Z,0.30
2022-09-10T12:26:19.850Z,0.32
2022-09-10T12:28:52.627Z,0.50
2022-09-10T12:31:21.530Z,0.23
2022-09-10T12:33:47.908Z,0.20
2022-09-10T12:36:35.372Z,0.30
2022-09-10T12:39:25.973Z,0.25
2022-09-10T12:41:53.130Z,0.22
2022-09-10T12:44:35.008Z,0.13
2022-09-10T12:47:13.691Z,0.30
2022-09-10T12:49:58.423Z,0.40
2022-09-10T12:52:50.927Z,0.32
2022-09-10T12:55:35.579Z,0.30
2022-09-10T12:58:23.402Z,0.20
2022-09-10T13:00:55.982Z,0.15
2022-09-10T13:03:25.490Z,0.22
2022-09-10T13:05:55.412Z,0.25
2022-09-10T13:08:27.660Z,0.40
2022-09-10T13:11:01.144Z,0.35
2022-09-10T13:13:45.290Z,0.20
2022-09-10T13:16:21.663Z,0.20
2022-09-10T13:18:55.012Z,0.17
2022-09-10T13:21:23.251Z,0.20
2022-09-10T13:23:54.826Z,0.15
2022-09-10T13:26:38.239Z,0.20
2022-09-10T13:29:11.303Z,0.20
2022-09-10T13:31:44.916Z,0.20
2022-09-10T13:34:14.441Z,0.40
2022-09-10T13:36:53.178Z,0.38
2022-09-10T13:39:28.878Z,0.30
2022-09-10T13:42:17.175Z,0.35
2022-09-10T13:45:11.489Z,0.30
2022-09-10T13:47:47.260Z,0.17
2022-09-10T13:50:18.642Z,0.30
2022-09-10T13:52:48.214Z,0.20
2022-09-10T13:55:21.496Z,0.90
2022-09-10T13:57:50.663Z,0.10
2022-09-10T14:00:17.057Z,0.35
2022-09-10T14:02:48.064Z,0.20
2022-09-10T14:05:44.377Z,0.50
2022-09-10T14:08:17.719Z,0.20
2022-09-10T14:10:53.356Z,0.30
2022-09-10T14:13:35.452Z,0.20
2022-09-10T14:16:04.736Z,0.30
2022-09-10T14:18:39.618Z,0.20
2022-09-10T14:21:06.544Z,0.20
2022-09-10T14:23:33.390Z,0.30
2022-09-10T14:26:19.308Z,0.20
2022-09-10T14:29:10.147Z,0.28
2022-09-10T14:31:37.270Z,0.30
2022-09-10T14:34:32.982Z,0.50
2022-09-10T14:37:01.041Z,0.20
2022-09-10T14:39:28.019Z,0.30
2022-09-10T14:42:25.086Z,0.10
2022-09-10T14:44:51.636Z,0.28
2022-09-10T14:47:35.673Z,0.20
2022-09-10T14:50:31.289Z,0.20
2022-09-10T14:52:58.698Z,0.20
2022-09-10T14:55:28.264Z,0.25
2022-09-10T14:57:55.689Z,1.15
2022-09-10T15:00:23.521Z,0.40
2022-09-10T15:02:52.313Z,0.50
2022-09-10T15:05:18.866Z,0.40
2022-09-10T15:07:45.475Z,0.40
2022-09-10T15:10:12.105Z,0.57
2022-09-10T15:12:41.587Z,0.30
2022-09-10T15:15:17.197Z,0.85
2022-09-10T15:17:44.110Z,0.50
2022-09-10T15:20:28.169Z,0.40
2022-09-10T15:22:54.754Z,0.40
2022-09-10T15:25:37.460Z,0.70
2022-09-10T15:28:05.328Z,0.60
2022-09-10T15:30:34.605Z,0.43
2022-09-10T15:33:05.268Z,0.32
2022-09-10T15:35:33.715Z,0.40
2022-09-10T15:38:01.693Z,0.28
2022-09-10T15:40:28.182Z,0.20
2022-09-10T15:42:54.627Z,0.30
2022-09-10T15:45:21.225Z,0.40
2022-09-10T15:47:47.669Z,0.30
2022-09-10T15:50:16.083Z,0.20
2022-09-10T15:52:45.937Z,0.30
2022-09-10T15:55:12.725Z,0.30
2022-09-10T15:57:40.323Z,0.65
2022-09-10T16:00:07.407Z,0.40
2022-09-10T16:02:34.211Z,0.73
2022-09-10T16:05:03.795Z,0.35
2022-09-10T16:07:33.447Z,0.40
2022-09-10T16:09:59.856Z,0.45
2022-09-10T16:12:27.372Z,0.30
2022-09-10T16:14:56.693Z,0.30
2022-09-10T16:17:23.324Z,0.70
2022-09-10T16:19:51.253Z,0.60
2022-09-10T16:22:20.663Z,0.40
2022-09-10T16:24:47.403Z,0.40
2022-09-10T16:27:13.972Z,0.40
2022-09-10T16:29:45.733Z,0.50
2022-09-10T16:32:12.813Z,0.60
2022-09-10T16:34:39.648Z,0.50
2022-09-10T16:37:06.975Z,0.70
2022-09-10T16:39:33.528Z,0.45
2022-09-10T16:42:00.061Z,0.73
2022-09-10T16:44:28.330Z,1.00
2022-09-10T16:46:57.443Z,0.75
2022-09-10T16:49:23.996Z,0.77
2022-09-10T16:51:50.681Z,0.90
2022-09-10T16:54:22.313Z,0.80
2022-09-10T16:56:50.147Z,0.80
2022-09-10T16:59:22.455Z,1.00
2022-09-10T17:01:50.201Z,0.90
2022-09-10T17:04:22.479Z,0.95
2022-09-10T17:06:51.355Z,0.90
2022-09-10T17:09:18.010Z,0.73
2022-09-10T17:11:44.500Z,1.00
2022-09-10T17:14:11.432Z,0.95
2022-09-10T17:16:40.288Z,0.93
2022-09-10T17:19:11.485Z,0.60
2022-09-10T17:21:40.272Z,1.77
2022-09-10T17:24:09.725Z,1.15
2022-09-10T17:26:37.208Z,0.98
2022-09-10T17:29:06.418Z,1.20
2022-09-10T17:31:33.972Z,1.60
2022-09-10T17:34:01.015Z,0.80
2022-09-10T17:36:28.234Z,1.73
2022-09-10T17:38:55.498Z,1.00
2022-09-10T17:41:23.991Z,1.27
2022-09-10T17:43:51.016Z,1.33
2022-09-10T17:46:21.246Z,1.10
2022-09-10T17:48:48.794Z,1.73
2022-09-10T17:51:24.052Z,1.30
2022-09-10T17:53:52.862Z,1.33
2022-09-10T17:56:20.264Z,1.63
2022-09-10T17:58:47.278Z,1.33
2022-09-10T18:01:36.191Z,1.25
2022-09-10T18:04:04.184Z,1.40
2022-09-10T18:06:32.286Z,1.30
2022-09-10T18:09:00.559Z,1.05
2022-09-10T18:11:29.995Z,1.25
2022-09-10T18:13:58.016Z,1.10
2022-09-10T18:16:27.735Z,1.13
2022-09-10T18:19:00.577Z,1.17
2022-09-10T18:21:31.192Z,1.03
2022-09-10T18:24:03.185Z,0.98
2022-09-10T18:26:32.126Z,1.70
2022-09-10T18:29:04.957Z,1.77
2022-09-10T18:31:34.229Z,1.90
2022-09-10T18:34:01.434Z,1.20
2022-09-10T18:36:31.424Z,0.90
2022-09-10T18:39:01.758Z,1.20
2022-09-10T18:41:31.144Z,1.08
2022-09-10T18:44:00.678Z,1.15
2022-09-10T18:46:28.965Z,1.08
2022-09-10T18:48:55.747Z,1.00
2022-09-10T18:51:24.675Z,1.20
2022-09-10T18:53:58.510Z,1.50
2022-09-10T18:59:01.431Z,1.27
2022-09-10T19:01:29.804Z,1.08
2022-09-10T19:03:59.824Z,1.48
2022-09-10T19:06:31.863Z,1.30
2022-09-10T19:09:08.280Z,1.40
2022-09-10T19:11:43.654Z,1.42
2022-09-10T19:14:18.477Z,1.40
2022-09-10T19:16:49.361Z,1.50
2022-09-10T19:19:19.738Z,1.40
2022-09-10T19:21:48.183Z,1.70
2022-09-10T19:24:32.922Z,1.40
2022-09-10T19:27:18.104Z,1.40
2022-09-10T19:29:47.100Z,1.30
2022-09-10T19:32:15.052Z,1.60
2022-09-10T19:34:41.541Z,1.60
2022-09-10T19:37:07.971Z,1.55
2022-09-10T19:39:34.543Z,1.65
2022-09-10T19:42:01.070Z,0.90
2022-09-10T19:44:28.083Z,1.40
2022-09-10T19:46:55.209Z,1.08
2022-09-10T19:49:22.251Z,1.55
2022-09-10T19:51:48.725Z,1.00
2022-09-10T19:54:15.140Z,0.85
2022-09-10T19:56:42.551Z,0.77
2022-09-10T19:59:09.987Z,0.88
2022-09-10T20:01:39.878Z,1.08
2022-09-10T20:04:10.248Z,0.88
2022-09-10T20:06:37.544Z,1.13
2022-09-10T20:09:05.993Z,0.90
2022-09-10T20:11:34.990Z,0.90
2022-09-10T20:14:13.210Z,0.75
2022-09-10T20:16:42.837Z,1.48
2022-09-10T20:19:11.682Z,0.82
2022-09-10T20:21:38.422Z,0.90
2022-09-10T20:24:07.542Z,0.85
2022-09-10T20:26:38.111Z,0.57
2022-09-10T20:29:12.859Z,0.85
2022-09-10T20:31:40.951Z,0.73
2022-09-10T20:34:12.100Z,1.23
2022-09-10T20:36:38.907Z,0.95
2022-09-10T20:39:06.568Z,1.00
2022-09-10T20:41:33.184Z,0.93
2022-09-10T20:44:01.280Z,1.25
2022-09-10T20:46:30.116Z,1.02
2022-09-10T20:49:02.849Z,0.98
2022-09-10T20:51:32.740Z,1.03
2022-09-10T20:53:59.333Z,1.30
2022-09-10T20:56:25.974Z,1.50
2022-09-10T20:58:52.580Z,1.25
2022-09-10T21:01:21.801Z,1.70
2022-09-10T21:03:49.853Z,1.55
2022-09-10T21:06:21.392Z,1.80
2022-09-10T21:08:48.070Z,1.60
2022-09-10T21:11:17.568Z,1.55
2022-09-10T21:13:47.013Z,1.70
2022-09-10T21:16:19.262Z,1.90
2022-09-10T21:18:55.035Z,1.92
2022-09-10T21:21:25.411Z,1.60
2022-09-10T21:23:56.195Z,2.55
2022-09-10T21:26:26.719Z,2.35
2022-09-10T21:28:58.689Z,1.70
2022-09-10T21:31:27.200Z,2.15
2022-09-10T21:34:00.606Z,1.85
2022-09-10T21:36:30.606Z,2.05
2022-09-10T21:38:59.802Z,1.92
2022-09-10T21:41:33.648Z,2.20
2022-09-10T21:46:27.707Z,1.60
2022-09-10T21:48:55.093Z,1.83
2022-09-10T21:51:22.485Z,2.15
2022-09-10T21:53:52.709Z,1.98
2022-09-10T21:56:19.379Z,1.77
2022-09-10T21:58:45.916Z,2.13
